sensor_id;sensor_type;location;lat;lon;timestamp;pressure;altitude;pressure_sealevel;temperature;humidity
27958;BME280;15295;42.658;23.374;2023-05-25T00:00:52;94575.25;;;21.64;48.62
27958;BME280;15295;42.658;23.374;2023-05-25T00:03:23;94557.03;;;21.53;48.74
27958;BME280;15295;42.658;23.374;2023-05-25T00:05:52;94563.97;;;21.58;48.96
27958;BME280;15295;42.658;23.374;2023-05-25T00:08:18;94574.31;;;21.67;49.10
27958;BME280;15295;42.658;23.374;2023-05-25T00:10:43;94554.59;;;21.46;49.26
27958;BME280;15295;42.658;23.374;2023-05-25T00:13:08;94542.25;;;21.38;49.46
27958;BME280;15295;42.658;23.374;2023-05-25T00:15:34;94558.59;;;21.55;49.12
27958;BME280;15295;42.658;23.374;2023-05-25T00:18:00;94554.13;;;21.48;49.31
27958;BME280;15295;42.658;23.374;2023-05-25T00:20:25;94571.41;;;21.61;49.35
27958;BME280;15295;42.658;23.374;2023-05-25T00:22:51;94551.25;;;21.33;49.66
27958;BME280;15295;42.658;23.374;2023-05-25T00:25:20;94542.63;;;21.22;49.63
27958;BME280;15295;42.658;23.374;2023-05-25T00:27:46;94583.34;;;21.43;49.88
27958;BME280;15295;42.658;23.374;2023-05-25T00:30:11;94569.78;;;21.27;50.03
27958;BME280;15295;42.658;23.374;2023-05-25T00:32:37;94551.13;;;21.10;50.02
27958;BME280;15295;42.658;23.374;2023-05-25T00:35:02;94570.13;;;21.11;50.46
27958;BME280;15295;42.658;23.374;2023-05-25T00:37:28;94539.56;;;20.75;51.22
27958;BME280;15295;42.658;23.374;2023-05-25T00:39:55;94569.63;;;20.86;51.68
27958;BME280;15295;42.658;23.374;2023-05-25T00:42:25;94571.03;;;20.81;51.88
27958;BME280;15295;42.658;23.374;2023-05-25T00:44:53;94571.34;;;20.74;51.88
27958;BME280;15295;42.658;23.374;2023-05-25T00:47:20;94592.34;;;20.84;51.92
27958;BME280;15295;42.658;23.374;2023-05-25T00:49:47;94577.50;;;20.69;52.46
27958;BME280;15295;42.658;23.374;2023-05-25T00:52:14;94561.63;;;20.60;52.41
27958;BME280;15295;42.658;23.374;2023-05-25T00:54:41;94585.38;;;20.80;51.94
27958;BME280;15295;42.658;23.374;2023-05-25T00:57:10;94568.09;;;20.57;52.35
27958;BME280;15295;42.658;23.374;2023-05-25T00:59:40;94589.72;;;20.71;52.29
27958;BME280;15295;42.658;23.374;2023-05-25T01:02:13;94588.00;;;20.74;52.42
27958;BME280;15295;42.658;23.374;2023-05-25T01:04:52;94595.41;;;20.68;52.57
27958;BME280;15295;42.658;23.374;2023-05-25T01:07:36;94559.28;;;20.41;52.59
27958;BME280;15295;42.658;23.374;2023-05-25T01:10:05;94598.19;;;20.59;52.17
27958;BME280;15295;42.658;23.374;2023-05-25T01:12:37;94568.69;;;20.43;52.11
27958;BME280;15295;42.658;23.374;2023-05-25T01:15:06;94566.38;;;20.42;51.85
27958;BME280;15295;42.658;23.374;2023-05-25T01:17:34;94577.03;;;20.52;51.73
27958;BME280;15295;42.658;23.374;2023-05-25T01:20:02;94577.81;;;20.53;51.71
27958;BME280;15295;42.658;23.374;2023-05-25T01:22:56;94553.59;;;20.35;51.92
27958;BME280;15295;42.658;23.374;2023-05-25T01:25:24;94556.03;;;20.33;51.77
27958;BME280;15295;42.658;23.374;2023-05-25T01:28:20;94556.19;;;20.39;51.47
27958;BME280;15295;42.658;23.374;2023-05-25T01:30:49;94577.94;;;20.49;51.25
27958;BME280;15295;42.658;23.374;2023-05-25T01:33:17;94574.25;;;20.43;51.29
27958;BME280;15295;42.658;23.374;2023-05-25T01:35:44;94575.16;;;20.40;51.83
27958;BME280;15295;42.658;23.374;2023-05-25T01:38:13;94572.84;;;20.39;52.02
27958;BME280;15295;42.658;23.374;2023-05-25T01:40:39;94565.59;;;20.32;52.14
27958;BME280;15295;42.658;23.374;2023-05-25T01:43:05;94570.38;;;20.23;52.41
27958;BME280;15295;42.658;23.374;2023-05-25T01:45:31;94562.75;;;20.14;52.35
27958;BME280;15295;42.658;23.374;2023-05-25T01:54:10;94550.41;;;20.06;53.02
27958;BME280;15295;42.658;23.374;2023-05-25T01:56:37;94565.34;;;20.09;53.21
27958;BME280;15295;42.658;23.374;2023-05-25T01:59:03;94570.00;;;20.12;52.68
27958;BME280;15295;42.658;23.374;2023-05-25T02:01:32;94544.38;;;19.98;52.91
27958;BME280;15295;42.658;23.374;2023-05-25T02:04:01;94567.69;;;20.19;52.88
27958;BME280;15295;42.658;23.374;2023-05-25T02:06:27;94560.00;;;20.23;53.08
27958;BME280;15295;42.658;23.374;2023-05-25T02:08:52;94573.44;;;20.34;52.63
27958;BME280;15295;42.658;23.374;2023-05-25T02:11:18;94572.69;;;20.33;53.00
27958;BME280;15295;42.658;23.374;2023-05-25T02:13:45;94559.56;;;20.34;52.47
27958;BME280;15295;42.658;23.374;2023-05-25T02:16:14;94555.13;;;20.27;51.96
27958;BME280;15295;42.658;23.374;2023-05-25T02:18:46;94566.38;;;20.33;51.92
27958;BME280;15295;42.658;23.374;2023-05-25T02:21:15;94551.50;;;20.18;51.70
27958;BME280;15295;42.658;23.374;2023-05-25T02:23:42;94581.31;;;20.26;51.54
27958;BME280;15295;42.658;23.374;2023-05-25T02:26:07;94545.78;;;20.03;51.64
27958;BME280;15295;42.658;23.374;2023-05-25T02:28:33;94580.53;;;20.26;51.48
27958;BME280;15295;42.658;23.374;2023-05-25T02:30:58;94576.16;;;20.16;51.29
27958;BME280;15295;42.658;23.374;2023-05-25T02:33:24;94586.38;;;20.19;51.34
27958;BME280;15295;42.658;23.374;2023-05-25T02:35:52;94596.63;;;20.00;51.22
27958;BME280;15295;42.658;23.374;2023-05-25T02:38:18;94566.91;;;19.70;50.90
27958;BME280;15295;42.658;23.374;2023-05-25T02:40:44;94572.94;;;19.68;50.69
27958;BME280;15295;42.658;23.374;2023-05-25T02:43:10;94597.88;;;19.68;50.71
27958;BME280;15295;42.658;23.374;2023-05-25T02:45:35;94601.22;;;19.63;50.80
27958;BME280;15295;42.658;23.374;2023-05-25T02:48:03;94568.78;;;19.42;51.00
27958;BME280;15295;42.658;23.374;2023-05-25T02:50:29;94605.41;;;19.59;51.73
27958;BME280;15295;42.658;23.374;2023-05-25T02:52:54;94605.41;;;19.59;52.07
27958;BME280;15295;42.658;23.374;2023-05-25T02:55:20;94623.28;;;19.67;52.46
27958;BME280;15295;42.658;23.374;2023-05-25T02:57:53;94623.72;;;19.65;52.53
27958;BME280;15295;42.658;23.374;2023-05-25T03:00:24;94605.97;;;19.54;52.51
27958;BME280;15295;42.658;23.374;2023-05-25T03:02:51;94623.16;;;19.70;52.54
27958;BME280;15295;42.658;23.374;2023-05-25T03:05:24;94607.69;;;19.60;52.66
27958;BME280;15295;42.658;23.374;2023-05-25T03:07:50;94606.44;;;19.52;52.51
27958;BME280;15295;42.658;23.374;2023-05-25T03:10:15;94626.19;;;19.63;52.62
27958;BME280;15295;42.658;23.374;2023-05-25T03:12:41;94625.44;;;19.63;52.41
27958;BME280;15295;42.658;23.374;2023-05-25T03:15:07;94632.03;;;19.65;52.56
27958;BME280;15295;42.658;23.374;2023-05-25T03:17:33;94623.25;;;19.58;51.65
27958;BME280;15295;42.658;23.374;2023-05-25T03:19:58;94618.66;;;19.42;51.52
27958;BME280;15295;42.658;23.374;2023-05-25T03:22:26;94610.03;;;19.40;51.50
27958;BME280;15295;42.658;23.374;2023-05-25T03:24:59;94634.41;;;19.45;51.42
27958;BME280;15295;42.658;23.374;2023-05-25T03:27:28;94625.50;;;19.29;51.55
27958;BME280;15295;42.658;23.374;2023-05-25T03:29:56;94626.47;;;19.13;51.70
27958;BME280;15295;42.658;23.374;2023-05-25T03:32:22;94600.81;;;19.00;51.92
27958;BME280;15295;42.658;23.374;2023-05-25T03:34:48;94625.13;;;19.17;51.86
27958;BME280;15295;42.658;23.374;2023-05-25T03:37:13;94623.56;;;19.16;52.05
27958;BME280;15295;42.658;23.374;2023-05-25T03:39:39;94641.81;;;19.27;51.80
27958;BME280;15295;42.658;23.374;2023-05-25T03:42:04;94622.22;;;19.21;52.03
27958;BME280;15295;42.658;23.374;2023-05-25T03:44:30;94626.41;;;19.25;52.10
27958;BME280;15295;42.658;23.374;2023-05-25T03:46:56;94616.97;;;19.23;51.46
27958;BME280;15295;42.658;23.374;2023-05-25T03:49:21;94614.59;;;19.12;51.64
27958;BME280;15295;42.658;23.374;2023-05-25T03:51:52;94631.78;;;19.29;52.08
27958;BME280;15295;42.658;23.374;2023-05-25T03:54:26;94624.09;;;19.24;51.79
27958;BME280;15295;42.658;23.374;2023-05-25T03:56:54;94609.84;;;19.13;52.09
27958;BME280;15295;42.658;23.374;2023-05-25T03:59:20;94640.84;;;19.42;51.78
27958;BME280;15295;42.658;23.374;2023-05-25T04:01:46;94614.41;;;19.29;51.78
27958;BME280;15295;42.658;23.374;2023-05-25T04:04:16;94614.09;;;19.27;51.58
27958;BME280;15295;42.658;23.374;2023-05-25T04:06:43;94653.50;;;19.43;51.97
27958;BME280;15295;42.658;23.374;2023-05-25T04:09:10;94636.34;;;19.36;52.15
27958;BME280;15295;42.658;23.374;2023-05-25T04:11:36;94634.25;;;19.49;52.40
27958;BME280;15295;42.658;23.374;2023-05-25T04:14:02;94614.22;;;19.45;52.00
27958;BME280;15295;42.658;23.374;2023-05-25T04:16:28;94666.63;;;19.82;52.00
27958;BME280;15295;42.658;23.374;2023-05-25T04:18:54;94656.78;;;19.81;51.18
27958;BME280;15295;42.658;23.374;2023-05-25T04:21:23;94641.97;;;19.75;51.25
27958;BME280;15295;42.658;23.374;2023-05-25T04:23:50;94647.09;;;19.86;50.89
27958;BME280;15295;42.658;23.374;2023-05-25T04:26:18;94642.94;;;19.81;50.81
27958;BME280;15295;42.658;23.374;2023-05-25T04:28:45;94676.88;;;19.94;49.93
27958;BME280;15295;42.658;23.374;2023-05-25T04:31:11;94671.59;;;19.87;50.02
27958;BME280;15295;42.658;23.374;2023-05-25T04:33:40;94671.50;;;20.00;50.32
27958;BME280;15295;42.658;23.374;2023-05-25T04:36:05;94658.53;;;19.88;50.63
27958;BME280;15295;42.658;23.374;2023-05-25T04:38:31;94672.91;;;20.05;50.32
27958;BME280;15295;42.658;23.374;2023-05-25T04:40:58;94681.75;;;20.12;50.69
27958;BME280;15295;42.658;23.374;2023-05-25T04:43:23;94691.81;;;20.19;50.34
27958;BME280;15295;42.658;23.374;2023-05-25T04:45:55;94676.88;;;20.25;50.53
27958;BME280;15295;42.658;23.374;2023-05-25T04:48:22;94680.47;;;20.35;50.44
27958;BME280;15295;42.658;23.374;2023-05-25T04:50:49;94668.94;;;20.45;50.43
27958;BME280;15295;42.658;23.374;2023-05-25T04:53:17;94678.06;;;20.64;50.43
27958;BME280;15295;42.658;23.374;2023-05-25T04:55:48;94684.31;;;20.86;50.45
27958;BME280;15295;42.658;23.374;2023-05-25T04:58:14;94674.59;;;21.00;50.04
27958;BME280;15295;42.658;23.374;2023-05-25T05:00:40;94678.78;;;21.04;49.07
27958;BME280;15295;42.658;23.374;2023-05-25T05:03:07;94665.22;;;21.06;49.05
27958;BME280;15295;42.658;23.374;2023-05-25T05:05:34;94676.47;;;21.03;49.25
27958;BME280;15295;42.658;23.374;2023-05-25T05:08:01;94669.06;;;21.18;48.64
27958;BME280;15295;42.658;23.374;2023-05-25T05:10:27;94664.13;;;21.13;48.30
27958;BME280;15295;42.658;23.374;2023-05-25T05:26:45;94680.25;;;22.47;46.73
27958;BME280;15295;42.658;23.374;2023-05-25T05:31:43;94672.91;;;22.58;46.47
27958;BME280;15295;42.658;23.374;2023-05-25T05:34:10;94654.41;;;22.46;46.74
27958;BME280;15295;42.658;23.374;2023-05-25T05:36:38;94697.97;;;22.91;46.66
27958;BME280;15295;42.658;23.374;2023-05-25T05:39:05;94642.53;;;22.69;45.73
27958;BME280;15295;42.658;23.374;2023-05-25T05:41:36;94664.00;;;23.01;45.32
27958;BME280;15295;42.658;23.374;2023-05-25T05:44:06;94692.81;;;23.46;45.32
27958;BME280;15295;42.658;23.374;2023-05-25T05:46:34;94657.03;;;23.21;45.06
27958;BME280;15295;42.658;23.374;2023-05-25T05:49:01;94669.91;;;23.42;44.96
27958;BME280;15295;42.658;23.374;2023-05-25T05:51:30;94691.59;;;23.76;44.54
27958;BME280;15295;42.658;23.374;2023-05-25T05:53:57;94692.38;;;23.91;44.20
27958;BME280;15295;42.658;23.374;2023-05-25T05:59:31;94658.50;;;23.84;44.15
27958;BME280;15295;42.658;23.374;2023-05-25T07:13:28;94673.66;;;26.79;38.80
27958;BME280;15295;42.658;23.374;2023-05-25T07:15:54;94708.78;;;27.17;38.67
27958;BME280;15295;42.658;23.374;2023-05-25T07:18:24;94706.88;;;27.39;38.19
27958;BME280;15295;42.658;23.374;2023-05-25T07:20:50;94707.72;;;27.51;37.65
27958;BME280;15295;42.658;23.374;2023-05-25T07:23:16;94708.22;;;27.55;37.86
27958;BME280;15295;42.658;23.374;2023-05-25T07:25:41;94709.53;;;27.65;37.58
27958;BME280;15295;42.658;23.374;2023-05-25T07:28:14;94711.16;;;27.88;37.43
27958;BME280;15295;42.658;23.374;2023-05-25T07:30:40;94713.72;;;27.92;37.46
27958;BME280;15295;42.658;23.374;2023-05-25T07:33:05;94714.97;;;27.85;37.96
27958;BME280;15295;42.658;23.374;2023-05-25T07:35:31;94718.03;;;27.87;37.57
27958;BME280;15295;42.658;23.374;2023-05-25T07:37:59;94725.94;;;27.89;37.67
27958;BME280;15295;42.658;23.374;2023-05-25T07:40:25;94715.97;;;27.82;37.55
27958;BME280;15295;42.658;23.374;2023-05-25T07:42:52;94703.69;;;27.69;37.39
27958;BME280;15295;42.658;23.374;2023-05-25T07:45:18;94713.63;;;27.70;37.45
27958;BME280;15295;42.658;23.374;2023-05-25T07:47:43;94699.28;;;27.57;37.66
27958;BME280;15295;42.658;23.374;2023-05-25T07:50:09;94727.47;;;27.73;37.42
27958;BME280;15295;42.658;23.374;2023-05-25T07:52:35;94732.00;;;27.65;37.74
27958;BME280;15295;42.658;23.374;2023-05-25T07:55:02;94720.44;;;27.46;38.07
27958;BME280;15295;42.658;23.374;2023-05-25T07:57:28;94732.34;;;27.30;38.62
27958;BME280;15295;42.658;23.374;2023-05-25T07:59:53;94729.41;;;27.14;38.82
27958;BME280;15295;42.658;23.374;2023-05-25T08:02:19;94725.75;;;26.97;39.10
27958;BME280;15295;42.658;23.374;2023-05-25T08:04:44;94747.09;;;26.83;39.68
27958;BME280;15295;42.658;23.374;2023-05-25T08:07:10;94740.63;;;26.46;40.24
27958;BME280;15295;42.658;23.374;2023-05-25T08:09:35;94745.00;;;26.21;40.95
27958;BME280;15295;42.658;23.374;2023-05-25T08:12:01;94762.19;;;25.88;41.46
27958;BME280;15295;42.658;23.374;2023-05-25T08:14:26;94748.84;;;25.58;42.09
27958;BME280;15295;42.658;23.374;2023-05-25T08:16:51;94750.28;;;25.33;42.57
27958;BME280;15295;42.658;23.374;2023-05-25T08:19:21;94767.69;;;25.22;42.95
27958;BME280;15295;42.658;23.374;2023-05-25T08:21:46;94775.31;;;25.22;43.12
27958;BME280;15295;42.658;23.374;2023-05-25T08:24:12;94774.81;;;25.23;43.00
27958;BME280;15295;42.658;23.374;2023-05-25T08:26:37;94755.22;;;25.03;42.91
27958;BME280;15295;42.658;23.374;2023-05-25T08:29:06;94785.66;;;25.16;42.96
27958;BME280;15295;42.658;23.374;2023-05-25T08:31:31;94782.84;;;25.16;42.87
27958;BME280;15295;42.658;23.374;2023-05-25T08:33:57;94782.41;;;25.03;43.19
27958;BME280;15295;42.658;23.374;2023-05-25T08:36:24;94778.38;;;24.89;43.56
27958;BME280;15295;42.658;23.374;2023-05-25T08:38:50;94790.53;;;24.72;44.03
27958;BME280;15295;42.658;23.374;2023-05-25T08:41:15;94796.22;;;24.63;44.63
27958;BME280;15295;42.658;23.374;2023-05-25T08:43:41;94785.84;;;24.48;45.68
27958;BME280;15295;42.658;23.374;2023-05-25T08:46:08;94793.72;;;24.35;46.04
27958;BME280;15295;42.658;23.374;2023-05-25T08:48:36;94796.31;;;24.10;46.90
27958;BME280;15295;42.658;23.374;2023-05-25T08:51:08;94779.81;;;23.97;47.29
27958;BME280;15295;42.658;23.374;2023-05-25T08:53:35;94796.22;;;23.95;47.79
27958;BME280;15295;42.658;23.374;2023-05-25T08:56:09;94794.41;;;23.92;48.21
27958;BME280;15295;42.658;23.374;2023-05-25T08:58:45;94805.66;;;23.83;48.46
27958;BME280;15295;42.658;23.374;2023-05-25T09:01:17;94811.44;;;23.80;48.32
27958;BME280;15295;42.658;23.374;2023-05-25T09:03:44;94818.44;;;23.75;48.93
27958;BME280;15295;42.658;23.374;2023-05-25T09:06:10;94827.88;;;23.77;49.13
27958;BME280;15295;42.658;23.374;2023-05-25T09:08:44;94808.31;;;23.63;49.83
27958;BME280;15295;42.658;23.374;2023-05-25T09:11:10;94802.19;;;23.50;51.21
27958;BME280;15295;42.658;23.374;2023-05-25T09:13:36;94815.22;;;23.44;51.54
27958;BME280;15295;42.658;23.374;2023-05-25T09:16:02;94826.91;;;23.33;52.52
27958;BME280;15295;42.658;23.374;2023-05-25T09:18:30;94820.00;;;23.20;52.65
27958;BME280;15295;42.658;23.374;2023-05-25T09:21:00;94814.47;;;23.11;52.48
27958;BME280;15295;42.658;23.374;2023-05-25T09:23:34;94805.81;;;23.09;52.50
27958;BME280;15295;42.658;23.374;2023-05-25T09:26:00;94813.88;;;23.07;52.48
27958;BME280;15295;42.658;23.374;2023-05-25T09:28:25;94814.69;;;22.98;52.58
27958;BME280;15295;42.658;23.374;2023-05-25T09:30:53;94813.50;;;22.90;53.37
27958;BME280;15295;42.658;23.374;2023-05-25T09:33:18;94800.97;;;22.85;53.39
27958;BME280;15295;42.658;23.374;2023-05-25T09:35:45;94801.13;;;22.82;53.82
27958;BME280;15295;42.658;23.374;2023-05-25T09:38:14;94795.03;;;22.92;54.25
27958;BME280;15295;42.658;23.374;2023-05-25T09:40:41;94805.38;;;23.01;54.33
27958;BME280;15295;42.658;23.374;2023-05-25T09:43:06;94790.09;;;22.96;54.14
27958;BME280;15295;42.658;23.374;2023-05-25T09:45:32;94786.03;;;22.97;55.16
27958;BME280;15295;42.658;23.374;2023-05-25T09:47:58;94773.38;;;22.96;54.63
27958;BME280;15295;42.658;23.374;2023-05-25T09:50:26;94794.63;;;23.18;54.74
27958;BME280;15295;42.658;23.374;2023-05-25T09:52:55;94783.38;;;23.36;53.98
27958;BME280;15295;42.658;23.374;2023-05-25T09:55:21;94778.09;;;23.38;53.45
27958;BME280;15295;42.658;23.374;2023-05-25T09:57:52;94780.53;;;23.45;54.11
27958;BME280;15295;42.658;23.374;2023-05-25T10:00:23;94785.66;;;23.61;53.40
27958;BME280;15295;42.658;23.374;2023-05-25T10:02:49;94776.88;;;23.77;53.97
27958;BME280;15295;42.658;23.374;2023-05-25T10:05:16;94772.38;;;23.94;53.48
27958;BME280;15295;42.658;23.374;2023-05-25T10:07:44;94783.03;;;24.19;52.95
27958;BME280;15295;42.658;23.374;2023-05-25T10:10:14;94781.66;;;24.29;52.50
27958;BME280;15295;42.658;23.374;2023-05-25T10:12:41;94775.53;;;24.40;52.91
27958;BME280;15295;42.658;23.374;2023-05-25T10:15:12;94782.84;;;24.52;52.24
27958;BME280;15295;42.658;23.374;2023-05-25T10:17:53;94770.69;;;24.70;51.48
27958;BME280;15295;42.658;23.374;2023-05-25T10:20:21;94766.63;;;24.85;50.51
27958;BME280;15295;42.658;23.374;2023-05-25T10:25:25;94764.66;;;25.06;49.71
27958;BME280;15295;42.658;23.374;2023-05-25T10:27:57;94760.75;;;25.18;50.52
27958;BME280;15295;42.658;23.374;2023-05-25T10:30:25;94753.75;;;25.28;49.08
27958;BME280;15295;42.658;23.374;2023-05-25T10:32:53;94746.50;;;25.16;47.55
27958;BME280;15295;42.658;23.374;2023-05-25T10:35:19;94724.34;;;24.98;47.76
27958;BME280;15295;42.658;23.374;2023-05-25T10:37:45;94739.78;;;25.08;47.38
27958;BME280;15295;42.658;23.374;2023-05-25T10:40:13;94732.00;;;25.17;48.09
27958;BME280;15295;42.658;23.374;2023-05-25T10:42:40;94731.25;;;25.17;47.41
27958;BME280;15295;42.658;23.374;2023-05-25T10:45:07;94720.75;;;25.32;46.85
27958;BME280;15295;42.658;23.374;2023-05-25T10:47:36;94719.84;;;25.41;46.45
27958;BME280;15295;42.658;23.374;2023-05-25T10:50:02;94713.63;;;25.31;46.77
27958;BME280;15295;42.658;23.374;2023-05-25T10:52:30;94713.63;;;25.31;47.31
27958;BME280;15295;42.658;23.374;2023-05-25T10:55:00;94704.69;;;25.47;47.05
27958;BME280;15295;42.658;23.374;2023-05-25T10:57:26;94703.59;;;25.59;46.57
27958;BME280;15295;42.658;23.374;2023-05-25T10:59:54;94708.63;;;25.55;46.50
27958;BME280;15295;42.658;23.374;2023-05-25T11:02:28;94708.91;;;25.57;46.90
27958;BME280;15295;42.658;23.374;2023-05-25T11:08:02;94703.53;;;25.79;45.89
27958;BME280;15295;42.658;23.374;2023-05-25T11:13:31;94711.38;;;25.75;45.35
27958;BME280;15295;42.658;23.374;2023-05-25T11:19:03;94707.75;;;25.89;45.54
27958;BME280;15295;42.658;23.374;2023-05-25T11:21:40;94712.69;;;26.00;45.49
27958;BME280;15295;42.658;23.374;2023-05-25T11:24:14;94687.50;;;26.06;45.34
27958;BME280;15295;42.658;23.374;2023-05-25T11:26:58;94711.16;;;26.25;44.68
27958;BME280;15295;42.658;23.374;2023-05-25T11:29:29;94708.63;;;26.27;43.93
27958;BME280;15295;42.658;23.374;2023-05-25T11:31:55;94713.69;;;26.23;43.39
27958;BME280;15295;42.658;23.374;2023-05-25T11:34:24;94715.53;;;26.31;42.88
27958;BME280;15295;42.658;23.374;2023-05-25T11:36:54;94720.69;;;26.38;42.08
27958;BME280;15295;42.658;23.374;2023-05-25T11:39:22;94713.88;;;26.45;41.01
27958;BME280;15295;42.658;23.374;2023-05-25T11:42:19;94703.34;;;26.34;41.25
27958;BME280;15295;42.658;23.374;2023-05-25T11:44:44;94715.31;;;26.35;42.56
27958;BME280;15295;42.658;23.374;2023-05-25T11:47:11;94715.41;;;26.15;43.10
27958;BME280;15295;42.658;23.374;2023-05-25T11:49:44;94698.94;;;26.02;43.72
27958;BME280;15295;42.658;23.374;2023-05-25T11:52:12;94703.78;;;26.01;43.75
27958;BME280;15295;42.658;23.374;2023-05-25T11:54:38;94702.03;;;26.04;43.85
27958;BME280;15295;42.658;23.374;2023-05-25T11:59:52;94704.38;;;26.11;42.90
27958;BME280;15295;42.658;23.374;2023-05-25T12:02:18;94704.50;;;26.22;42.78
27958;BME280;15295;42.658;23.374;2023-05-25T12:05:07;94702.47;;;26.23;43.08
27958;BME280;15295;42.658;23.374;2023-05-25T12:07:34;94682.56;;;26.15;43.47
27958;BME280;15295;42.658;23.374;2023-05-25T12:12:48;94688.91;;;26.72;42.40
27958;BME280;15295;42.658;23.374;2023-05-25T12:15:16;94692.38;;;26.99;41.92
27958;BME280;15295;42.658;23.374;2023-05-25T12:17:43;94697.88;;;27.30;41.60
27958;BME280;15295;42.658;23.374;2023-05-25T12:20:10;94696.78;;;27.59;40.42
27958;BME280;15295;42.658;23.374;2023-05-25T12:22:39;94690.94;;;27.73;39.58
27958;BME280;15295;42.658;23.374;2023-05-25T12:25:06;94692.78;;;27.93;38.73
27958;BME280;15295;42.658;23.374;2023-05-25T12:27:33;94679.81;;;28.06;38.50
27958;BME280;15295;42.658;23.374;2023-05-25T12:29:58;94675.47;;;28.11;37.51
27958;BME280;15295;42.658;23.374;2023-05-25T12:32:24;94656.00;;;27.85;36.52
27958;BME280;15295;42.658;23.374;2023-05-25T12:34:50;94663.41;;;27.94;36.30
27958;BME280;15295;42.658;23.374;2023-05-25T12:37:20;94654.00;;;27.97;35.97
27958;BME280;15295;42.658;23.374;2023-05-25T12:39:45;94660.41;;;28.08;35.77
27958;BME280;15295;42.658;23.374;2023-05-25T12:42:13;94655.03;;;28.21;35.45
27958;BME280;15295;42.658;23.374;2023-05-25T12:44:39;94635.88;;;28.25;35.33
27958;BME280;15295;42.658;23.374;2023-05-25T12:47:10;94656.59;;;28.39;35.08
27958;BME280;15295;42.658;23.374;2023-05-25T12:49:37;94645.59;;;28.41;34.90
27958;BME280;15295;42.658;23.374;2023-05-25T12:52:03;94642.00;;;28.41;34.77
27958;BME280;15295;42.658;23.374;2023-05-25T12:57:00;94633.59;;;28.46;34.68
27958;BME280;15295;42.658;23.374;2023-05-25T12:59:34;94617.22;;;28.39;35.20
27958;BME280;15295;42.658;23.374;2023-05-25T13:02:00;94622.09;;;28.44;34.26
27958;BME280;15295;42.658;23.374;2023-05-25T13:04:26;94622.59;;;28.43;33.98
27958;BME280;15295;42.658;23.374;2023-05-25T13:06:52;94613.91;;;28.41;34.06
27958;BME280;15295;42.658;23.374;2023-05-25T13:09:18;94609.06;;;28.36;34.25
27958;BME280;15295;42.658;23.374;2023-05-25T13:11:43;94606.50;;;28.43;33.71
27958;BME280;15295;42.658;23.374;2023-05-25T13:14:09;94595.75;;;28.53;34.25
27958;BME280;15295;42.658;23.374;2023-05-25T13:16:34;94602.13;;;28.75;33.09
27958;BME280;15295;42.658;23.374;2023-05-25T13:19:00;94588.59;;;28.74;33.59
27958;BME280;15295;42.658;23.374;2023-05-25T13:21:25;94601.06;;;28.89;33.53
27958;BME280;15295;42.658;23.374;2023-05-25T13:24:00;94605.38;;;28.96;32.37
27958;BME280;15295;42.658;23.374;2023-05-25T13:26:25;94607.97;;;28.88;32.96
27958;BME280;15295;42.658;23.374;2023-05-25T13:28:51;94598.75;;;28.88;32.87
27958;BME280;15295;42.658;23.374;2023-05-25T13:31:16;94603.38;;;28.91;32.55
27958;BME280;15295;42.658;23.374;2023-05-25T13:33:42;94592.84;;;28.97;32.12
27958;BME280;15295;42.658;23.374;2023-05-25T13:36:07;94583.88;;;28.98;32.57
27958;BME280;15295;42.658;23.374;2023-05-25T13:38:33;94591.81;;;29.00;30.59
27958;BME280;15295;42.658;23.374;2023-05-25T13:40:59;94593.63;;;28.97;29.29
27958;BME280;15295;42.658;23.374;2023-05-25T13:43:25;94601.00;;;29.12;29.71
27958;BME280;15295;42.658;23.374;2023-05-25T13:45:51;94601.72;;;29.29;29.26
27958;BME280;15295;42.658;23.374;2023-05-25T13:48:16;94599.09;;;29.42;28.46
27958;BME280;15295;42.658;23.374;2023-05-25T13:50:42;94586.53;;;29.43;28.72
27958;BME280;15295;42.658;23.374;2023-05-25T13:53:10;94602.59;;;29.59;28.00
27958;BME280;15295;42.658;23.374;2023-05-25T13:55:37;94592.59;;;29.58;27.64
27958;BME280;15295;42.658;23.374;2023-05-25T13:58:02;94590.00;;;29.60;28.22
27958;BME280;15295;42.658;23.374;2023-05-25T14:00:28;94598.16;;;29.69;28.57
27958;BME280;15295;42.658;23.374;2023-05-25T14:02:59;94599.94;;;29.72;28.15
27958;BME280;15295;42.658;23.374;2023-05-25T14:05:25;94599.94;;;29.72;28.35
27958;BME280;15295;42.658;23.374;2023-05-25T14:07:52;94601.53;;;29.62;29.00
27958;BME280;15295;42.658;23.374;2023-05-25T14:10:18;94603.41;;;29.48;28.37
27958;BME280;15295;42.658;23.374;2023-05-25T14:12:44;94586.28;;;29.46;27.98
27958;BME280;15295;42.658;23.374;2023-05-25T14:15:10;94594.13;;;29.59;28.21
27958;BME280;15295;42.658;23.374;2023-05-25T14:17:35;94592.09;;;29.54;28.50
27958;BME280;15295;42.658;23.374;2023-05-25T14:20:01;94594.16;;;29.53;27.50
27958;BME280;15295;42.658;23.374;2023-05-25T14:22:30;94591.38;;;29.48;27.62
27958;BME280;15295;42.658;23.374;2023-05-25T14:25:03;94583.22;;;29.39;27.98
27958;BME280;15295;42.658;23.374;2023-05-25T14:27:29;94581.16;;;29.45;28.33
27958;BME280;15295;42.658;23.374;2023-05-25T14:29:54;94564.00;;;29.48;28.27
27958;BME280;15295;42.658;23.374;2023-05-25T14:32:19;94580.25;;;29.66;27.70
27958;BME280;15295;42.658;23.374;2023-05-25T14:34:47;94564.16;;;29.61;27.94
27958;BME280;15295;42.658;23.374;2023-05-25T14:37:12;94573.59;;;29.69;28.80
27958;BME280;15295;42.658;23.374;2023-05-25T14:39:38;94566.91;;;29.78;28.72
27958;BME280;15295;42.658;23.374;2023-05-25T14:42:03;94570.41;;;29.90;28.27
27958;BME280;15295;42.658;23.374;2023-05-25T14:44:30;94575.03;;;29.87;28.34
27958;BME280;15295;42.658;23.374;2023-05-25T14:46:55;94565.53;;;29.90;28.42
27958;BME280;15295;42.658;23.374;2023-05-25T14:49:21;94560.66;;;29.91;28.79